Time;durP1;ratioP1;P1;durP2;ratioP2;P2;SDS_P1;SDS_P2;PMS_P1;PMS_P2;Temp;Humidity;BMP_temperature;BMP_pressure;BME280_temperature;BME280_humidity;BME280_pressure;Samples;Min_cycle;Max_cycle;Signal;HPM_P1;HPM_P2
2022/05/06 00:01:46;;;;;;;13.15;10.32;;;21.50;47.50;;;;;;5144112;27;20115;-45
2022/05/06 00:04:12;;;;;;;11.25;9.85;;;21.50;47.50;;;;;;5142360;27;20047;-40
2022/05/06 00:06:38;;;;;;;12.30;9.73;;;21.50;47.50;;;;;;5143500;27;20012;-41
2022/05/06 00:09:05;;;;;;;11.60;9.70;;;21.50;47.50;;;;;;5143380;27;20019;-42
2022/05/06 00:11:31;;;;;;;12.32;10.52;;;21.50;47.50;;;;;;5144780;27;20026;-39
2022/05/06 00:13:57;;;;;;;12.85;10.48;;;21.50;48.20;;;;;;5145044;27;20019;-40
2022/05/06 00:16:23;;;;;;;13.88;10.73;;;21.50;47.50;;;;;;5143137;27;20064;-42
2022/05/06 00:18:50;;;;;;;13.52;11.38;;;21.50;47.50;;;;;;5144312;27;20025;-39
2022/05/06 00:21:19;;;;;;;13.18;11.50;;;21.50;47.50;;;;;;5144302;27;20059;-41
2022/05/06 00:23:46;;;;;;;16.00;11.80;;;21.50;47.50;;;;;;5142979;27;20027;-41
2022/05/06 00:26:12;;;;;;;15.27;11.80;;;21.50;47.60;;;;;;5142093;27;20015;-41
2022/05/06 00:28:41;;;;;;;13.85;11.20;;;21.50;47.70;;;;;;5142089;27;20046;-43
2022/05/06 00:31:07;;;;;;;15.43;12.02;;;21.50;47.60;;;;;;5142698;27;20019;-41
2022/05/06 00:33:35;;;;;;;14.73;12.38;;;21.40;47.60;;;;;;5143013;27;20012;-44
2022/05/06 00:36:02;;;;;;;15.32;12.52;;;21.50;47.70;;;;;;5143134;27;20026;-42
2022/05/06 00:38:28;;;;;;;15.82;12.45;;;21.50;47.70;;;;;;5139827;27;20015;-41
2022/05/06 00:40:54;;;;;;;14.38;12.25;;;21.50;47.60;;;;;;5138644;27;20018;-41
2022/05/06 00:43:21;;;;;;;16.35;12.93;;;21.50;47.60;;;;;;5140801;27;20076;-42
2022/05/06 00:45:54;;;;;;;14.82;12.75;;;21.50;47.80;;;;;;5140783;27;20072;-42
2022/05/06 00:48:28;;;;;;;15.55;12.65;;;21.40;47.60;;;;;;5141206;27;20091;-42
2022/05/06 00:50:55;;;;;;;15.73;13.20;;;21.50;47.60;;;;;;5140484;27;20011;-42
2022/05/06 00:53:20;;;;;;;15.38;12.52;;;21.50;47.60;;;;;;5142865;27;20066;-40
2022/05/06 00:55:46;;;;;;;16.98;13.95;;;21.50;47.60;;;;;;5142163;27;20012;-42
2022/05/06 00:58:13;;;;;;;15.82;13.18;;;21.40;47.60;;;;;;5146802;27;20015;-41
2022/05/06 01:00:40;;;;;;;15.18;12.63;;;21.50;47.60;;;;;;5127012;27;20012;-42
2022/05/06 01:03:06;;;;;;;15.20;13.05;;;21.40;47.60;;;;;;5143585;27;20402;-42
2022/05/06 01:05:33;;;;;;;15.27;12.98;;;21.40;47.60;;;;;;5142799;27;20019;-46
2022/05/06 01:07:59;;;;;;;16.27;13.50;;;21.50;47.60;;;;;;5143235;27;20031;-42
2022/05/06 01:10:26;;;;;;;15.90;13.15;;;21.50;47.60;;;;;;5142753;27;20067;-41
2022/05/06 01:12:54;;;;;;;14.65;12.93;;;21.50;47.60;;;;;;5140218;27;20057;-41
2022/05/06 01:15:21;;;;;;;14.75;13.15;;;21.40;47.50;;;;;;5139655;27;20086;-40
2022/05/06 01:17:48;;;;;;;15.98;13.35;;;21.40;47.50;;;;;;5139088;27;20034;-43
2022/05/06 01:20:16;;;;;;;14.60;12.68;;;21.40;47.50;;;;;;5139709;27;20026;-40
2022/05/06 01:22:52;;;;;;;14.60;13.00;;;21.40;47.40;;;;;;5122061;27;20087;-39
2022/05/06 01:25:18;;;;;;;14.88;13.05;;;21.40;47.40;;;;;;5140861;27;20015;-41
2022/05/06 01:28:04;;;;;;;15.43;12.35;;;21.50;47.50;;;;;;5140426;27;20027;-43
2022/05/06 01:30:42;;;;;;;14.23;12.30;;;21.50;47.50;;;;;;5140585;27;20048;-39
2022/05/06 01:33:12;;;;;;;16.40;12.70;;;21.40;47.40;;;;;;5141884;27;20019;-45
2022/05/06 01:35:45;;;;;;;15.63;12.88;;;21.40;47.40;;;;;;5142234;27;20050;-43
2022/05/06 01:38:32;;;;;;;14.40;12.73;;;21.40;47.50;;;;;;5142597;27;20018;-43
2022/05/06 01:41:08;;;;;;;14.02;12.40;;;21.40;47.40;;;;;;5132513;27;20056;-40
2022/05/06 01:43:45;;;;;;;15.93;13.27;;;21.40;47.40;;;;;;5141750;27;20016;-45
2022/05/06 01:46:13;;;;;;;14.80;12.63;;;21.40;47.40;;;;;;5140968;27;20030;-41
2022/05/06 01:48:39;;;;;;;14.00;12.13;;;21.40;47.40;;;;;;5141227;27;20007;-41
2022/05/06 01:51:06;;;;;;;14.10;12.60;;;21.40;47.30;;;;;;5142881;27;20023;-43
2022/05/06 01:53:31;;;;;;;14.73;12.68;;;21.40;47.40;;;;;;5141292;27;20016;-40
2022/05/06 01:55:57;;;;;;;13.75;12.27;;;21.40;47.30;;;;;;5141180;27;20015;-40
2022/05/06 01:58:25;;;;;;;13.63;11.98;;;21.40;47.30;;;;;;5140588;27;20012;-43
2022/05/06 02:00:50;;;;;;;13.10;11.77;;;21.40;47.30;;;;;;5140507;27;20029;-46
2022/05/06 02:06:02;;;;;;;14.15;12.30;;;21.40;47.40;;;;;;5142898;27;20074;-44
2022/05/06 02:08:28;;;;;;;13.00;11.60;;;21.40;47.30;;;;;;5140461;27;20110;-42
2022/05/06 02:10:54;;;;;;;13.45;12.00;;;21.40;47.40;;;;;;5140198;27;20473;-41
2022/05/06 02:13:19;;;;;;;13.48;12.07;;;21.40;47.40;;;;;;5141022;27;20015;-41
2022/05/06 02:15:45;;;;;;;14.63;12.30;;;21.40;47.50;;;;;;5142423;27;20457;-40
2022/05/06 02:18:12;;;;;;;13.40;11.75;;;21.40;47.40;;;;;;5104703;27;20021;-43
2022/05/06 02:20:37;;;;;;;13.85;12.32;;;21.40;47.40;;;;;;5140935;27;20074;-42
2022/05/06 02:23:03;;;;;;;13.30;11.90;;;21.40;47.40;;;;;;5140559;27;20015;-44
2022/05/06 02:25:29;;;;;;;14.02;12.10;;;21.40;47.50;;;;;;5141308;27;20027;-40
2022/05/06 02:27:56;;;;;;;14.10;12.43;;;21.40;47.40;;;;;;5140015;27;20036;-43
2022/05/06 02:33:14;;;;;;;13.57;11.85;;;21.40;47.50;;;;;;5142191;27;20026;-41
2022/05/06 02:35:41;;;;;;;14.20;12.20;;;21.40;47.40;;;;;;5142470;27;20095;-45
2022/05/06 02:38:08;;;;;;;14.00;12.10;;;21.40;47.40;;;;;;5143287;27;20008;-47
2022/05/06 02:40:34;;;;;;;14.23;12.30;;;21.40;47.40;;;;;;5144033;27;20016;-42
2022/05/06 02:43:02;;;;;;;15.05;12.45;;;21.30;47.30;;;;;;5142356;27;20011;-40
2022/05/06 02:45:28;;;;;;;14.60;12.75;;;21.30;47.30;;;;;;5140730;27;20034;-43
2022/05/06 02:47:54;;;;;;;13.52;12.10;;;21.30;47.40;;;;;;5139766;27;20389;-40
2022/05/06 02:50:20;;;;;;;14.38;12.45;;;21.40;47.40;;;;;;5139535;27;20015;-42
2022/05/06 02:52:47;;;;;;;14.30;12.80;;;21.30;47.40;;;;;;5140586;27;20027;-47
2022/05/06 02:55:13;;;;;;;14.07;12.48;;;21.30;47.40;;;;;;5142725;27;20064;-44
2022/05/06 02:57:40;;;;;;;14.70;12.32;;;21.30;47.90;;;;;;5143428;27;20019;-44
2022/05/06 03:00:08;;;;;;;14.27;12.60;;;21.30;47.40;;;;;;5143925;27;20064;-43
2022/05/06 03:02:33;;;;;;;14.27;12.60;;;21.40;47.50;;;;;;5142790;27;20023;-41
2022/05/06 03:04:59;;;;;;;14.52;12.82;;;21.30;47.40;;;;;;5141347;28;20537;-44
2022/05/06 03:07:25;;;;;;;14.80;12.70;;;21.30;47.40;;;;;;5141820;27;20011;-40
2022/05/06 03:09:52;;;;;;;14.95;12.57;;;21.30;47.40;;;;;;5142792;27;20354;-41
2022/05/06 03:12:19;;;;;;;15.07;12.85;;;21.30;47.40;;;;;;5141914;27;20057;-41
2022/05/06 03:14:45;;;;;;;15.52;13.43;;;21.30;47.40;;;;;;5123028;28;20506;-43
2022/05/06 03:17:11;;;;;;;14.85;13.18;;;21.30;47.40;;;;;;5139388;28;20022;-44
2022/05/06 03:19:37;;;;;;;15.07;13.27;;;21.30;47.50;;;;;;5139718;27;20022;-42
2022/05/06 03:22:03;;;;;;;15.90;13.35;;;21.30;47.50;;;;;;5138439;27;20047;-40
2022/05/06 03:24:29;;;;;;;15.27;13.10;;;21.30;47.50;;;;;;5138953;27;20020;-45
2022/05/06 03:26:55;;;;;;;14.60;12.40;;;21.30;47.50;;;;;;5139343;27;20449;-42
2022/05/06 03:29:21;;;;;;;15.48;13.13;;;21.30;47.50;;;;;;5140645;27;20045;-41
2022/05/06 03:31:47;;;;;;;15.75;13.02;;;21.30;47.50;;;;;;5142979;27;20038;-40
2022/05/06 03:34:12;;;;;;;15.98;13.63;;;21.30;47.60;;;;;;5143626;27;20052;-40
2022/05/06 03:36:39;;;;;;;16.15;13.90;;;21.30;47.60;;;;;;5143751;27;20465;-42
2022/05/06 03:39:04;;;;;;;16.23;13.60;;;21.30;47.60;;;;;;5143905;27;20045;-43
2022/05/06 03:41:30;;;;;;;16.02;13.40;;;21.30;47.60;;;;;;5144443;27;20477;-42
2022/05/06 03:43:56;;;;;;;15.73;13.35;;;21.30;47.60;;;;;;5143213;27;20030;-45
2022/05/06 03:46:22;;;;;;;16.25;13.77;;;21.30;47.60;;;;;;5124892;27;20015;-43
2022/05/06 03:48:48;;;;;;;15.60;13.50;;;21.30;47.60;;;;;;5141988;27;20019;-40
2022/05/06 03:51:23;;;;;;;16.08;13.93;;;21.30;47.60;;;;;;5124689;27;20015;-44
2022/05/06 03:53:52;;;;;;;15.80;13.07;;;21.20;47.60;;;;;;5142804;27;20012;-41
2022/05/06 03:56:19;;;;;;;17.27;14.48;;;21.30;47.60;;;;;;5143816;27;20019;-43
2022/05/06 03:58:45;;;;;;;15.48;13.20;;;21.30;47.70;;;;;;5142269;27;20015;-41
2022/05/06 04:01:11;;;;;;;16.83;14.10;;;21.20;47.60;;;;;;5140884;27;20023;-43
2022/05/06 04:03:38;;;;;;;16.70;13.80;;;21.20;47.60;;;;;;5142394;27;20034;-46
2022/05/06 04:06:04;;;;;;;16.48;13.88;;;21.30;47.60;;;;;;5141798;27;20037;-42
2022/05/06 04:08:32;;;;;;;17.05;14.45;;;21.30;47.60;;;;;;5123482;27;20027;-40
2022/05/06 04:10:57;;;;;;;17.73;13.77;;;21.20;47.60;;;;;;5141945;27;20537;-42
2022/05/06 04:13:23;;;;;;;16.35;14.18;;;21.20;47.60;;;;;;5141290;27;20094;-40
2022/05/06 04:15:50;;;;;;;16.17;13.95;;;21.20;47.60;;;;;;5141738;27;20075;-40
2022/05/06 04:18:15;;;;;;;16.65;14.05;;;21.20;47.60;;;;;;5142067;27;20064;-41
2022/05/06 04:23:30;;;;;;;17.55;14.20;;;21.20;47.70;;;;;;5140628;27;20031;-40
2022/05/06 04:26:06;;;;;;;17.75;14.27;;;21.20;47.60;;;;;;5141087;27;20022;-42
2022/05/06 04:28:32;;;;;;;17.08;14.80;;;21.20;47.70;;;;;;5142347;27;20126;-42
2022/05/06 04:30:59;;;;;;;18.17;15.20;;;21.20;47.60;;;;;;5141709;27;20030;-41
2022/05/06 04:33:25;;;;;;;17.73;14.60;;;21.20;47.70;;;;;;5141607;27;20046;-42
2022/05/06 04:35:53;;;;;;;18.25;14.70;;;21.20;47.70;;;;;;5141910;27;20015;-41
2022/05/06 04:38:19;;;;;;;17.30;14.25;;;21.20;47.70;;;;;;5141062;27;20015;-43
2022/05/06 04:40:45;;;;;;;18.05;14.60;;;21.20;47.80;;;;;;5140804;27;20095;-42
2022/05/06 04:43:11;;;;;;;18.70;14.85;;;21.20;47.80;;;;;;5141541;27;20381;-42
2022/05/06 04:45:38;;;;;;;16.92;14.32;;;21.20;47.70;;;;;;5140200;27;20496;-41
2022/05/06 04:48:06;;;;;;;18.45;14.73;;;21.20;47.70;;;;;;5140214;27;20473;-40
2022/05/06 04:50:38;;;;;;;17.80;14.45;;;21.20;47.70;;;;;;5140419;27;20004;-42
2022/05/06 04:53:07;;;;;;;17.40;14.52;;;21.20;47.70;;;;;;5142255;27;20460;-41
2022/05/06 04:55:36;;;;;;;17.45;14.18;;;21.20;47.70;;;;;;5142894;27;20015;-43
2022/05/06 04:58:02;;;;;;;18.55;15.00;;;21.20;47.70;;;;;;5124528;27;20046;-40
2022/05/06 05:00:28;;;;;;;18.77;15.02;;;21.20;47.70;;;;;;5142665;27;20098;-39
2022/05/06 05:02:54;;;;;;;17.38;14.38;;;21.20;47.80;;;;;;5141530;27;20477;-41
2022/05/06 05:05:21;;;;;;;17.55;14.55;;;21.20;47.80;;;;;;5139851;27;20027;-41
2022/05/06 05:07:47;;;;;;;17.70;14.60;;;21.20;47.80;;;;;;5139103;27;20012;-44
2022/05/06 05:10:13;;;;;;;19.20;14.75;;;21.20;47.90;;;;;;5140291;27;20063;-40
2022/05/06 05:12:38;;;;;;;17.70;14.95;;;21.20;47.80;;;;;;5140229;27;20557;-41
2022/05/06 05:15:05;;;;;;;19.33;14.80;;;21.20;47.80;;;;;;5138887;27;20026;-40
2022/05/06 05:17:30;;;;;;;17.63;14.90;;;21.20;47.80;;;;;;5139770;27;20055;-40
2022/05/06 05:19:56;;;;;;;18.63;14.73;;;21.10;47.90;;;;;;5137683;27;20049;-39
2022/05/06 05:22:22;;;;;;;19.83;15.02;;;21.20;47.90;;;;;;5135981;27;20055;-39
2022/05/06 05:24:47;;;;;;;16.65;14.38;;;21.20;47.90;;;;;;5136783;27;20106;-41
2022/05/06 05:27:14;;;;;;;17.27;15.35;;;21.20;47.90;;;;;;5137494;27;20025;-40
2022/05/06 05:29:41;;;;;;;18.30;14.85;;;21.10;47.90;;;;;;5139942;27;20007;-41
2022/05/06 05:32:07;;;;;;;24.95;16.58;;;21.20;47.90;;;;;;5139016;27;20381;-42
2022/05/06 05:34:33;;;;;;;19.13;15.13;;;21.20;47.90;;;;;;5137559;27;20099;-41
2022/05/06 05:36:58;;;;;;;17.95;15.25;;;21.20;47.90;;;;;;5138230;27;20474;-39
2022/05/06 05:39:24;;;;;;;18.88;14.70;;;21.20;47.90;;;;;;5136005;27;20051;-42
2022/05/06 05:41:50;;;;;;;18.13;14.75;;;21.20;47.80;;;;;;5137808;27;20072;-42
2022/05/06 05:49:45;;;;;;;17.80;14.10;;;21.40;47.30;;;;;;5136480;27;20488;-40
2022/05/06 05:52:11;;;;;;;16.00;14.20;;;21.60;46.80;;;;;;5134748;27;20023;-41
2022/05/06 05:54:39;;;;;;;17.35;14.88;;;21.80;46.50;;;;;;5136045;27;20019;-39
2022/05/06 05:57:05;;;;;;;17.95;14.43;;;21.90;46.20;;;;;;5135006;27;20039;-40
2022/05/06 05:59:33;;;;;;;16.90;14.18;;;21.90;45.90;;;;;;5134028;27;20054;-41
2022/05/06 06:02:04;;;;;;;17.05;14.65;;;22.00;45.70;;;;;;5135858;27;20015;-40
2022/05/06 06:04:30;;;;;;;18.98;14.50;;;22.10;45.60;;;;;;5133587;27;20167;-40
2022/05/06 06:06:56;;;;;;;16.67;13.57;;;22.10;45.40;;;;;;5135546;27;20015;-39
2022/05/06 06:09:23;;;;;;;17.70;14.68;;;22.20;45.30;;;;;;5134942;27;20008;-40
2022/05/06 06:11:49;;;;;;;17.65;15.20;;;22.20;45.30;;;;;;5134073;27;20023;-39
2022/05/06 06:14:16;;;;;;;17.48;14.57;;;22.30;45.20;;;;;;5133208;27;20076;-39
2022/05/06 06:16:43;;;;;;;17.27;14.52;;;22.40;45.00;;;;;;5132754;27;20019;-39
2022/05/06 06:19:09;;;;;;;17.45;14.18;;;22.40;44.90;;;;;;5114426;27;20027;-39
2022/05/06 06:21:34;;;;;;;36.70;19.02;;;22.40;44.80;;;;;;5094728;27;20126;-39
2022/05/06 06:24:00;;;;;;;42.83;19.08;;;21.50;47.70;;;;;;5113572;27;20149;-38
2022/05/06 06:26:26;;;;;;;34.17;19.52;;;20.80;50.40;;;;;;5134288;27;20015;-40
2022/05/06 06:28:54;;;;;;;50.65;21.52;;;20.10;53.00;;;;;;5134267;27;20158;-37
2022/05/06 06:31:20;;;;;;;42.00;20.80;;;20.20;53.40;;;;;;5133626;27;20023;-37
2022/05/06 06:33:47;;;;;;;36.95;22.77;;;20.30;53.10;;;;;;5134855;27;20023;-39
2022/05/06 06:36:13;;;;;;;52.58;29.77;;;20.60;52.40;;;;;;5132778;27;20019;-38
2022/05/06 06:38:39;;;;;;;42.13;23.02;;;20.80;51.60;;;;;;5134139;27;20011;-41
2022/05/06 06:41:05;;;;;;;38.47;20.75;;;21.00;51.80;;;;;;5133050;27;20102;-38
2022/05/06 06:43:31;;;;;;;38.80;19.75;;;21.10;50.40;;;;;;5133792;27;20062;-38
2022/05/06 06:45:56;;;;;;;33.30;19.08;;;21.00;51.30;;;;;;5132355;27;20468;-38
2022/05/06 06:48:24;;;;;;;34.05;19.20;;;21.00;50.30;;;;;;5133532;27;20029;-37
2022/05/06 06:50:52;;;;;;;32.97;18.42;;;21.10;50.60;;;;;;5132485;27;20008;-37
2022/05/06 06:53:19;;;;;;;27.15;17.13;;;21.30;50.00;;;;;;5133969;27;20024;-38
2022/05/06 06:55:45;;;;;;;26.60;17.55;;;21.30;49.10;;;;;;5132761;27;20016;-37
2022/05/06 06:58:11;;;;;;;37.03;18.13;;;21.30;49.40;;;;;;5133799;27;20015;-38
2022/05/06 07:00:37;;;;;;;38.75;18.60;;;21.20;49.70;;;;;;5133495;27;20491;-39
2022/05/06 07:03:03;;;;;;;52.25;19.30;;;21.00;50.10;;;;;;5134307;27;20083;-37
2022/05/06 07:05:29;;;;;;;36.40;18.58;;;20.90;50.30;;;;;;5138292;27;20411;-37
2022/05/06 07:13:28;;;;;;;43.47;21.83;;;20.00;53.10;;;;;;5136586;27;20138;-37
2022/05/06 07:15:54;;;;;;;48.15;21.63;;;20.10;52.70;;;;;;5137469;27;20011;-37
2022/05/06 07:18:20;;;;;;;60.13;24.88;;;19.50;55.00;;;;;;5136158;27;20030;-37
2022/05/06 07:20:46;;;;;;;56.30;23.10;;;19.20;55.60;;;;;;5135986;27;20027;-37
2022/05/06 07:23:12;;;;;;;65.25;24.60;;;19.90;54.80;;;;;;5135139;27;20016;-37
2022/05/06 07:25:38;;;;;;;54.63;24.45;;;20.50;53.50;;;;;;5137628;27;20030;-38
2022/05/06 07:28:06;;;;;;;52.45;23.08;;;21.00;51.90;;;;;;5136146;27;20067;-38
2022/05/06 07:30:31;;;;;;;50.90;24.23;;;21.30;51.10;;;;;;5137379;27;20015;-38
2022/05/06 07:32:57;;;;;;;54.80;24.38;;;21.40;50.40;;;;;;5135851;27;20027;-39
2022/05/06 07:35:23;;;;;;;55.20;25.77;;;21.70;49.90;;;;;;5137329;27;20076;-38
2022/05/06 07:37:49;;;;;;;55.30;25.20;;;21.90;49.70;;;;;;5135472;27;20024;-38
2022/05/06 07:40:15;;;;;;;55.22;23.83;;;22.10;49.50;;;;;;5136869;27;20094;-38
2022/05/06 07:42:42;;;;;;;50.28;24.90;;;22.30;49.30;;;;;;5136837;27;20057;-38
2022/05/06 07:45:09;;;;;;;53.75;25.40;;;22.50;49.10;;;;;;5136984;27;20027;-38
2022/05/06 07:47:35;;;;;;;56.67;25.70;;;22.60;48.90;;;;;;5136337;27;20007;-38
2022/05/06 07:50:01;;;;;;;53.38;25.10;;;22.80;48.70;;;;;;5135186;27;20471;-39
2022/05/06 07:52:26;;;;;;;60.75;25.90;;;22.90;48.50;;;;;;5135302;27;20406;-43
2022/05/06 07:54:52;;;;;;;56.50;27.02;;;23.10;48.40;;;;;;5134741;27;20018;-39
2022/05/06 07:57:18;;;;;;;55.80;26.42;;;23.20;48.20;;;;;;5136514;27;20026;-39
2022/05/06 07:59:44;;;;;;;54.40;26.33;;;23.30;48.10;;;;;;5134515;27;20362;-40
2022/05/06 08:04:54;;;;;;;59.45;27.50;;;23.50;47.90;;;;;;5134292;27;20104;-39
2022/05/06 08:07:20;;;;;;;54.42;29.00;;;23.50;47.90;;;;;;5134089;27;20015;-39
2022/05/06 08:09:45;;;;;;;58.65;26.92;;;23.60;47.60;;;;;;5134058;27;20003;-39
2022/05/06 08:12:13;;;;;;;56.83;28.08;;;23.70;47.30;;;;;;5135707;27;20034;-40
2022/05/06 08:14:39;;;;;;;57.38;29.17;;;23.80;46.70;;;;;;5135170;27;20022;-39
2022/05/06 08:17:06;;;;;;;59.78;29.25;;;24.00;46.20;;;;;;5134534;27;20019;-39
2022/05/06 08:19:33;;;;;;;58.03;28.80;;;24.20;45.60;;;;;;5135002;27;20049;-38
2022/05/06 08:21:58;;;;;;;54.35;28.13;;;24.40;45.00;;;;;;5134610;27;20039;-38
2022/05/06 08:24:24;;;;;;;58.55;29.35;;;24.60;44.50;;;;;;5133342;27;20023;-38
2022/05/06 08:26:50;;;;;;;60.47;28.15;;;24.70;44.00;;;;;;5135161;27;20422;-39
2022/05/06 08:29:15;;;;;;;59.00;29.13;;;24.70;43.80;;;;;;5116697;27;20035;-38
2022/05/06 08:31:41;;;;;;;59.72;29.52;;;24.60;44.00;;;;;;5116817;27;20062;-39
2022/05/06 08:34:08;;;;;;;60.17;28.70;;;24.60;44.60;;;;;;5134626;27;20051;-38
2022/05/06 08:36:35;;;;;;;57.90;28.60;;;24.60;43.70;;;;;;5135202;27;20007;-39
2022/05/06 08:39:02;;;;;;;49.85;27.60;;;24.70;43.50;;;;;;5135397;27;20042;-38
2022/05/06 08:41:27;;;;;;;57.55;29.27;;;24.70;43.20;;;;;;5135605;27;20011;-38
2022/05/06 08:43:53;;;;;;;51.42;26.92;;;24.70;43.00;;;;;;5099742;27;20046;-39
2022/05/06 08:51:48;;;;;;;54.53;29.50;;;24.60;43.00;;;;;;5134170;27;20045;-38
2022/05/06 08:54:15;;;;;;;51.35;28.45;;;24.60;43.10;;;;;;5134110;27;20031;-38
2022/05/06 08:56:41;;;;;;;53.70;28.10;;;24.60;43.20;;;;;;5135257;27;20076;-39
2022/05/06 08:59:07;;;;;;;47.85;26.92;;;24.70;42.90;;;;;;5116132;27;20373;-39
2022/05/06 09:01:32;;;;;;;46.88;25.08;;;24.70;42.60;;;;;;5116874;27;20023;-39
2022/05/06 09:03:58;;;;;;;46.10;26.30;;;24.80;42.50;;;;;;5135638;27;20054;-38
2022/05/06 09:06:27;;;;;;;48.03;25.70;;;24.80;42.50;;;;;;5134429;27;20467;-39
2022/05/06 09:08:59;;;;;;;45.45;25.13;;;24.80;42.60;;;;;;5133751;27;20161;-38
2022/05/06 09:14:18;;;;;;;42.72;23.55;;;24.80;42.20;;;;;;5134327;27;20137;-38
2022/05/06 09:16:46;;;;;;;45.83;23.98;;;24.70;42.60;;;;;;5134900;27;20015;-38
2022/05/06 09:19:24;;;;;;;49.00;23.45;;;24.60;43.00;;;;;;5134175;27;20090;-38
2022/05/06 09:22:08;;;;;;;50.75;23.38;;;24.60;43.30;;;;;;5134255;27;20132;-38
2022/05/06 09:24:35;;;;;;;46.53;22.05;;;24.70;43.30;;;;;;5134503;27;20022;-38
2022/05/06 09:27:09;;;;;;;46.78;22.15;;;24.80;43.30;;;;;;5133840;27;20461;-38
2022/05/06 09:29:36;;;;;;;42.95;21.52;;;24.60;43.50;;;;;;5132944;27;20019;-38
2022/05/06 09:32:31;;;;;;;40.55;21.25;;;24.60;43.70;;;;;;5133140;27;20015;-37
2022/05/06 09:35:12;;;;;;;43.58;21.45;;;24.70;43.40;;;;;;5115947;27;20054;-38
2022/05/06 09:37:47;;;;;;;38.22;20.67;;;24.80;43.40;;;;;;5135005;27;20031;-38
2022/05/06 09:40:18;;;;;;;38.22;20.67;;;24.80;43.20;;;;;;5133452;27;20067;-38
2022/05/06 09:42:57;;;;;;;38.90;19.35;;;24.70;43.40;;;;;;5134659;27;20019;-38
2022/05/06 09:45:33;;;;;;;35.50;18.57;;;24.60;43.40;;;;;;5133771;27;20023;-38
2022/05/06 09:48:03;;;;;;;36.90;19.83;;;24.60;43.10;;;;;;5132357;27;20035;-38
2022/05/06 09:50:45;;;;;;;35.35;18.52;;;24.60;43.10;;;;;;5133580;27;20068;-38
2022/05/06 09:53:15;;;;;;;35.25;18.48;;;24.60;43.10;;;;;;5132596;27;20022;-39
2022/05/06 09:55:45;;;;;;;32.20;17.70;;;24.70;42.90;;;;;;5134707;27;20106;-38
2022/05/06 09:58:12;;;;;;;37.05;18.33;;;24.70;42.90;;;;;;5134317;27;20047;-42
2022/05/06 10:00:38;;;;;;;30.58;16.52;;;24.70;42.60;;;;;;5133640;27;20022;-43
2022/05/06 10:03:05;;;;;;;29.20;16.42;;;24.70;42.50;;;;;;5135436;27;20373;-39
2022/05/06 10:05:33;;;;;;;35.42;16.60;;;24.50;42.80;;;;;;5117952;27;20023;-40
2022/05/06 10:08:03;;;;;;;30.98;15.45;;;24.30;42.80;;;;;;5136479;27;20007;-42
2022/05/06 10:10:34;;;;;;;27.98;15.10;;;24.40;42.00;;;;;;5119228;27;20035;-40
2022/05/06 10:13:09;;;;;;;27.08;14.95;;;24.60;41.50;;;;;;5136989;27;20098;-40
2022/05/06 10:15:34;;;;;;;28.17;14.38;;;24.60;41.10;;;;;;5135282;27;20019;-42
2022/05/06 10:18:02;;;;;;;25.60;13.48;;;24.80;40.60;;;;;;5137150;27;20031;-39
2022/05/06 10:20:36;;;;;;;27.25;13.85;;;24.90;40.20;;;;;;5135835;27;20014;-42
2022/05/06 10:23:08;;;;;;;28.70;14.73;;;24.90;40.00;;;;;;5136837;27;20513;-40
2022/05/06 10:25:43;;;;;;;27.15;14.10;;;25.00;39.80;;;;;;5137129;27;20103;-41
2022/05/06 10:34:11;;;;;;;22.00;12.20;;;24.90;39.50;;;;;;5136175;27;20106;-39
2022/05/06 10:37:15;;;;;;;19.75;11.20;;;25.00;39.20;;;;;;5136416;27;20019;-39
2022/05/06 10:39:40;;;;;;;17.55;9.82;;;25.10;38.80;;;;;;5125491;27;20019;-40
2022/05/06 10:42:10;;;;;;;20.25;10.15;;;25.10;38.30;;;;;;5138027;27;20011;-40
2022/05/06 10:44:45;;;;;;;17.88;10.02;;;25.20;38.20;;;;;;5136761;27;20098;-41
2022/05/06 10:47:16;;;;;;;19.40;10.93;;;25.20;38.00;;;;;;5134758;27;20011;-40
2022/05/06 10:49:51;;;;;;;20.85;11.02;;;25.20;38.00;;;;;;5133875;27;20019;-39
2022/05/06 10:52:18;;;;;;;26.45;10.15;;;24.90;38.70;;;;;;5134053;27;20011;-41
2022/05/06 10:54:44;;;;;;;23.38;10.73;;;24.90;39.10;;;;;;5132824;27;20083;-39
2022/05/06 10:57:10;;;;;;;20.70;10.48;;;24.80;39.20;;;;;;5131182;27;20015;-39
2022/05/06 10:59:49;;;;;;;21.10;10.70;;;24.80;40.00;;;;;;5130853;28;20037;-40
2022/05/06 11:02:16;;;;;;;20.80;10.02;;;24.80;40.10;;;;;;5132613;27;20040;-40
2022/05/06 11:04:49;;;;;;;24.80;10.40;;;24.70;40.50;;;;;;5130959;28;20019;-39
2022/05/06 11:07:17;;;;;;;18.60;9.90;;;24.60;41.50;;;;;;5130761;28;20004;-39
2022/05/06 11:09:42;;;;;;;21.17;9.98;;;24.60;41.40;;;;;;5131659;27;20019;-39
2022/05/06 11:12:08;;;;;;;22.48;10.10;;;24.50;41.70;;;;;;5113052;28;20066;-39
2022/05/06 11:14:35;;;;;;;17.27;9.30;;;24.30;41.70;;;;;;5132228;27;20011;-39
2022/05/06 11:17:16;;;;;;;22.40;10.45;;;24.20;42.00;;;;;;5132224;28;20493;-39
2022/05/06 11:19:42;;;;;;;22.58;10.15;;;24.10;42.60;;;;;;5132271;27;20408;-40
2022/05/06 11:22:08;;;;;;;21.63;11.20;;;24.00;42.80;;;;;;5130518;28;20088;-39
2022/05/06 11:24:34;;;;;;;25.65;10.80;;;24.00;42.60;;;;;;5129971;28;20095;-39
2022/05/06 11:27:17;;;;;;;24.52;11.45;;;24.10;43.00;;;;;;5112890;28;20016;-41
2022/05/06 11:29:55;;;;;;;20.13;10.43;;;24.10;43.60;;;;;;5132028;27;20407;-39
2022/05/06 11:32:21;;;;;;;22.15;10.73;;;24.10;43.40;;;;;;5131928;27;20031;-39
2022/05/06 11:34:57;;;;;;;20.17;10.65;;;24.00;43.70;;;;;;5133031;27;20078;-39
2022/05/06 11:37:27;;;;;;;20.35;10.55;;;23.90;43.80;;;;;;5131482;27;20049;-39
2022/05/06 11:42:40;;;;;;;19.73;10.02;;;23.90;44.20;;;;;;5130519;28;20030;-39
2022/05/06 11:47:50;;;;;;;22.20;9.85;;;23.70;44.70;;;;;;5132861;28;20066;-38
2022/05/06 11:50:16;;;;;;;21.98;10.52;;;23.70;44.70;;;;;;5134555;27;20013;-38
2022/05/06 11:52:46;;;;;;;24.67;10.38;;;23.70;44.60;;;;;;5135966;27;20077;-39
2022/05/06 11:55:12;;;;;;;27.17;10.25;;;23.70;44.80;;;;;;5119240;27;20015;-38
2022/05/06 11:57:41;;;;;;;32.08;10.95;;;23.80;44.90;;;;;;5135879;27;20031;-40
2022/05/06 12:00:07;;;;;;;27.80;11.10;;;23.80;44.60;;;;;;5118731;27;20016;-38
2022/05/06 12:02:35;;;;;;;21.90;10.32;;;23.80;44.30;;;;;;5135737;27;20023;-37
2022/05/06 12:05:01;;;;;;;24.13;10.73;;;23.50;44.40;;;;;;5135914;27;20477;-38
2022/05/06 12:07:46;;;;;;;21.40;10.23;;;23.30;43.70;;;;;;5136275;27;20015;-37
2022/05/06 12:10:32;;;;;;;20.15;10.27;;;23.40;44.00;;;;;;5118774;27;20008;-37
2022/05/06 12:13:07;;;;;;;18.52;9.50;;;23.30;43.50;;;;;;5137012;27;20015;-39
2022/05/06 12:15:39;;;;;;;18.17;9.02;;;23.40;43.90;;;;;;5136712;27;20023;-38
2022/05/06 12:18:24;;;;;;;17.75;9.18;;;23.60;43.50;;;;;;5137324;27;20023;-37
2022/05/06 12:20:50;;;;;;;20.17;8.93;;;23.80;43.30;;;;;;5136617;27;20039;-37
2022/05/06 12:23:15;;;;;;;16.80;7.47;;;23.90;43.40;;;;;;5136772;27;20026;-37
2022/05/06 12:25:42;;;;;;;17.88;7.95;;;24.00;43.30;;;;;;5134940;27;20107;-37
2022/05/06 12:28:17;;;;;;;15.93;7.78;;;24.10;43.30;;;;;;5134526;27;20008;-38
2022/05/06 12:30:44;;;;;;;15.05;8.23;;;24.10;43.40;;;;;;5136872;27;20539;-38
2022/05/06 12:33:14;;;;;;;21.10;8.23;;;24.10;43.40;;;;;;5137627;27;20027;-39
2022/05/06 12:35:58;;;;;;;;;;;24.10;42.80;;;;;;5137456;27;20052;-39
2022/05/06 12:38:25;;;;;;;16.67;7.40;;;24.10;42.60;;;;;;5136613;27;19990;-38
2022/05/06 12:40:52;;;;;;;14.80;7.35;;;24.20;42.40;;;;;;5136717;27;20091;-41
2022/05/06 12:43:25;;;;;;;15.40;7.25;;;24.20;42.40;;;;;;5118154;27;20031;-39
2022/05/06 12:45:59;;;;;;;18.27;6.85;;;24.30;42.30;;;;;;5137020;27;20073;-39
2022/05/06 12:51:09;;;;;;;16.38;7.40;;;24.30;42.20;;;;;;5136115;27;20079;-38
2022/05/06 12:53:37;;;;;;;14.25;7.13;;;24.30;42.10;;;;;;5117496;27;20057;-38
2022/05/06 12:56:03;;;;;;;15.45;6.93;;;24.30;42.10;;;;;;5134126;27;20019;-39
2022/05/06 12:58:29;;;;;;;16.30;7.43;;;24.30;42.10;;;;;;5135457;27;20023;-39
2022/05/06 13:00:58;;;;;;;15.68;7.05;;;24.30;42.00;;;;;;5136329;27;20019;-39
2022/05/06 13:03:24;;;;;;;15.95;6.82;;;24.30;42.00;;;;;;5134951;27;20011;-39
2022/05/06 13:05:50;;;;;;;10.88;5.97;;;24.30;42.00;;;;;;5135955;27;20379;-39
2022/05/06 13:08:16;;;;;;;15.30;6.47;;;24.30;42.00;;;;;;5135769;27;20444;-38
2022/05/06 13:10:42;;;;;;;10.63;6.15;;;24.30;42.00;;;;;;5136176;27;20047;-38
2022/05/06 13:13:08;;;;;;;13.43;6.35;;;24.20;41.90;;;;;;5135700;27;20015;-39
2022/05/06 13:15:34;;;;;;;13.35;6.10;;;24.30;42.00;;;;;;5136121;27;20461;-39
2022/05/06 13:18:02;;;;;;;14.63;7.10;;;24.20;42.00;;;;;;5134900;27;20035;-39